sensor_id;sensor_type;location;lat;lon;timestamp;pressure;altitude;pressure_sealevel;temperature;humidity
30724;BME280;17473;52.286;20.930;2023-05-23T00:01:41;100291.13;;;15.60;59.33
30724;BME280;17473;52.286;20.930;2023-05-23T00:04:09;100281.41;;;15.60;59.07
30724;BME280;17473;52.286;20.930;2023-05-23T00:06:43;100284.81;;;15.52;59.46
30724;BME280;17473;52.286;20.930;2023-05-23T00:09:16;100282.97;;;15.41;59.55
30724;BME280;17473;52.286;20.930;2023-05-23T00:11:44;100283.94;;;15.49;59.32
30724;BME280;17473;52.286;20.930;2023-05-23T00:14:15;100282.09;;;15.45;59.30
30724;BME280;17473;52.286;20.930;2023-05-23T00:16:44;100277.81;;;15.55;58.88
30724;BME280;17473;52.286;20.930;2023-05-23T00:19:12;100278.69;;;15.56;59.70
30724;BME280;17473;52.286;20.930;2023-05-23T00:21:45;100268.81;;;15.45;59.69
30724;BME280;17473;52.286;20.930;2023-05-23T00:24:14;100278.56;;;15.48;59.39
30724;BME280;17473;52.286;20.930;2023-05-23T00:26:45;100272.31;;;15.43;59.84
30724;BME280;17473;52.286;20.930;2023-05-23T00:29:13;100272.38;;;15.46;60.27
30724;BME280;17473;52.286;20.930;2023-05-23T00:31:43;100273.03;;;15.29;61.00
30724;BME280;17473;52.286;20.930;2023-05-23T00:34:14;100268.50;;;15.21;61.53
30724;BME280;17473;52.286;20.930;2023-05-23T00:36:44;100268.31;;;15.08;61.96
30724;BME280;17473;52.286;20.930;2023-05-23T00:39:14;100269.19;;;15.06;62.19
30724;BME280;17473;52.286;20.930;2023-05-23T00:41:49;100259.56;;;15.15;62.30
30724;BME280;17473;52.286;20.930;2023-05-23T00:44:19;100262.16;;;15.11;62.47
30724;BME280;17473;52.286;20.930;2023-05-23T00:46:52;100264.75;;;15.06;62.78
30724;BME280;17473;52.286;20.930;2023-05-23T00:49:21;100260.31;;;15.05;62.50
30724;BME280;17473;52.286;20.930;2023-05-23T00:51:50;100264.72;;;15.05;62.65
30724;BME280;17473;52.286;20.930;2023-05-23T00:54:28;100264.72;;;15.03;62.09
30724;BME280;17473;52.286;20.930;2023-05-23T00:56:57;100264.53;;;14.89;62.82
30724;BME280;17473;52.286;20.930;2023-05-23T00:59:25;100276.19;;;14.99;62.23
30724;BME280;17473;52.286;20.930;2023-05-23T01:01:55;100272.59;;;14.95;62.27
30724;BME280;17473;52.286;20.930;2023-05-23T01:04:23;100268.97;;;14.90;62.71
30724;BME280;17473;52.286;20.930;2023-05-23T01:06:54;100255.63;;;14.85;62.54
30724;BME280;17473;52.286;20.930;2023-05-23T01:09:24;100275.03;;;14.81;62.93
30724;BME280;17473;52.286;20.930;2023-05-23T01:15:02;100268.69;;;14.70;63.42
30724;BME280;17473;52.286;20.930;2023-05-23T01:18:28;100274.81;;;14.67;63.63
30724;BME280;17473;52.286;20.930;2023-05-23T01:20:56;100279.19;;;14.64;64.01
30724;BME280;17473;52.286;20.930;2023-05-23T01:27:01;100281.81;;;14.62;65.65
30724;BME280;17473;52.286;20.930;2023-05-23T01:29:34;100274.63;;;14.56;66.14
30724;BME280;17473;52.286;20.930;2023-05-23T01:32:07;100272.53;;;14.34;67.39
30724;BME280;17473;52.286;20.930;2023-05-23T01:34:37;100275.13;;;14.31;67.97
30724;BME280;17473;52.286;20.930;2023-05-23T01:37:10;100270.66;;;14.30;68.10
30724;BME280;17473;52.286;20.930;2023-05-23T01:39:37;100273.94;;;14.15;69.16
30724;BME280;17473;52.286;20.930;2023-05-23T01:42:05;100267.13;;;14.29;69.45
30724;BME280;17473;52.286;20.930;2023-05-23T01:44:34;100259.97;;;14.27;69.86
30724;BME280;17473;52.286;20.930;2023-05-23T01:47:07;100267.13;;;14.29;69.86
30724;BME280;17473;52.286;20.930;2023-05-23T01:49:36;100266.22;;;14.29;70.75
30724;BME280;17473;52.286;20.930;2023-05-23T01:52:04;100262.97;;;13.95;71.88
30724;BME280;17473;52.286;20.930;2023-05-23T01:54:38;100262.13;;;13.96;71.67
30724;BME280;17473;52.286;20.930;2023-05-23T01:57:09;100257.59;;;13.91;71.86
30724;BME280;17473;52.286;20.930;2023-05-23T01:59:37;100253.13;;;13.87;72.56
30724;BME280;17473;52.286;20.930;2023-05-23T02:02:05;100252.38;;;13.96;72.31
30724;BME280;17473;52.286;20.930;2023-05-23T02:04:32;100255.97;;;14.00;71.83
30724;BME280;17473;52.286;20.930;2023-05-23T02:06:59;100252.38;;;13.95;71.76
30724;BME280;17473;52.286;20.930;2023-05-23T02:09:27;100250.38;;;13.83;72.59
30724;BME280;17473;52.286;20.930;2023-05-23T02:11:54;100242.97;;;13.65;73.15
30724;BME280;17473;52.286;20.930;2023-05-23T02:14:21;100242.94;;;13.61;73.03
30724;BME280;17473;52.286;20.930;2023-05-23T02:16:49;100239.00;;;13.42;73.18
30724;BME280;17473;52.286;20.930;2023-05-23T02:19:19;100240.03;;;13.49;73.02
30724;BME280;17473;52.286;20.930;2023-05-23T02:21:46;100242.44;;;13.38;72.93
30724;BME280;17473;52.286;20.930;2023-05-23T02:24:13;100240.19;;;13.15;74.45
30724;BME280;17473;52.286;20.930;2023-05-23T02:26:41;100241.41;;;13.30;73.95
30724;BME280;17473;52.286;20.930;2023-05-23T02:29:08;100240.66;;;13.37;73.35
30724;BME280;17473;52.286;20.930;2023-05-23T02:31:35;100232.25;;;13.15;74.67
30724;BME280;17473;52.286;20.930;2023-05-23T02:34:02;100235.91;;;13.21;74.59
30724;BME280;17473;52.286;20.930;2023-05-23T02:36:29;100232.88;;;13.04;74.62
30724;BME280;17473;52.286;20.930;2023-05-23T02:38:59;100232.25;;;13.15;73.27
30724;BME280;17473;52.286;20.930;2023-05-23T02:41:26;100229.22;;;13.40;72.31
30724;BME280;17473;52.286;20.930;2023-05-23T02:43:54;100234.66;;;13.46;72.16
30724;BME280;17473;52.286;20.930;2023-05-23T02:46:21;100227.44;;;13.39;72.18
30724;BME280;17473;52.286;20.930;2023-05-23T02:48:48;100232.75;;;13.39;72.52
30724;BME280;17473;52.286;20.930;2023-05-23T02:51:16;100224.72;;;13.36;72.72
30724;BME280;17473;52.286;20.930;2023-05-23T02:53:43;100231.97;;;13.43;72.28
30724;BME280;17473;52.286;20.930;2023-05-23T02:56:10;100219.66;;;13.46;71.95
30724;BME280;17473;52.286;20.930;2023-05-23T02:58:39;100225.00;;;13.50;72.01
30724;BME280;17473;52.286;20.930;2023-05-23T03:01:06;100223.25;;;13.50;71.53
30724;BME280;17473;52.286;20.930;2023-05-23T03:03:34;100222.66;;;13.67;71.09
30724;BME280;17473;52.286;20.930;2023-05-23T03:06:02;100225.56;;;13.81;69.95
30724;BME280;17473;52.286;20.930;2023-05-23T03:08:30;100226.34;;;13.75;70.14
30724;BME280;17473;52.286;20.930;2023-05-23T03:10:58;100221.16;;;13.81;69.91
30724;BME280;17473;52.286;20.930;2023-05-23T03:13:25;100227.66;;;13.99;68.75
30724;BME280;17473;52.286;20.930;2023-05-23T03:15:52;100222.63;;;14.14;67.60
30724;BME280;17473;52.286;20.930;2023-05-23T03:18:19;100217.69;;;14.39;67.64
30724;BME280;17473;52.286;20.930;2023-05-23T03:20:47;100213.59;;;14.60;66.35
30724;BME280;17473;52.286;20.930;2023-05-23T03:23:14;100216.56;;;14.81;64.99
30724;BME280;17473;52.286;20.930;2023-05-23T03:25:42;100218.78;;;15.13;64.27
30724;BME280;17473;52.286;20.930;2023-05-23T03:28:09;100225.25;;;15.36;62.62
30724;BME280;17473;52.286;20.930;2023-05-23T03:30:38;100214.34;;;15.95;60.79
30724;BME280;17473;52.286;20.930;2023-05-23T03:33:05;100215.16;;;17.12;56.77
30724;BME280;17473;52.286;20.930;2023-05-23T03:35:33;100213.59;;;18.45;52.49
30724;BME280;17473;52.286;20.930;2023-05-23T03:38:00;100213.84;;;20.07;47.42
30724;BME280;17473;52.286;20.930;2023-05-23T03:40:27;100217.16;;;21.20;44.41
30724;BME280;17473;52.286;20.930;2023-05-23T03:43:21;100221.31;;;22.08;41.71
30724;BME280;17473;52.286;20.930;2023-05-23T03:45:48;100223.41;;;22.45;40.96
30724;BME280;17473;52.286;20.930;2023-05-23T03:48:15;100216.66;;;23.18;39.11
30724;BME280;17473;52.286;20.930;2023-05-23T03:50:42;100211.38;;;23.94;37.71
30724;BME280;17473;52.286;20.930;2023-05-23T03:53:09;100206.91;;;24.98;36.29
30724;BME280;17473;52.286;20.930;2023-05-23T03:55:38;100217.03;;;25.53;34.97
30724;BME280;17473;52.286;20.930;2023-05-23T03:58:05;100208.34;;;25.41;35.05
30724;BME280;17473;52.286;20.930;2023-05-23T04:00:33;100208.34;;;26.53;32.96
30724;BME280;17473;52.286;20.930;2023-05-23T04:03:00;100206.16;;;26.90;32.23
30724;BME280;17473;52.286;20.930;2023-05-23T04:05:27;100197.66;;;27.48;31.06
30724;BME280;17473;52.286;20.930;2023-05-23T04:07:54;100200.91;;;27.80;31.09
30724;BME280;17473;52.286;20.930;2023-05-23T04:10:21;100191.47;;;28.34;30.04
30724;BME280;17473;52.286;20.930;2023-05-23T04:12:48;100197.47;;;29.04;29.02
30724;BME280;17473;52.286;20.930;2023-05-23T04:15:17;100188.69;;;29.18;28.71
30724;BME280;17473;52.286;20.930;2023-05-23T04:17:47;100195.84;;;30.32;26.96
30724;BME280;17473;52.286;20.930;2023-05-23T04:20:14;100199.06;;;30.58;26.50
30724;BME280;17473;52.286;20.930;2023-05-23T04:22:42;100195.31;;;31.12;26.20
30724;BME280;17473;52.286;20.930;2023-05-23T04:25:09;100193.00;;;31.53;26.02
30724;BME280;17473;52.286;20.930;2023-05-23T04:27:36;100189.00;;;32.84;24.04
30724;BME280;17473;52.286;20.930;2023-05-23T04:30:07;100187.75;;;33.33;22.99
30724;BME280;17473;52.286;20.930;2023-05-23T04:32:36;100189.16;;;33.53;22.87
30724;BME280;17473;52.286;20.930;2023-05-23T04:35:04;100192.75;;;34.10;22.36
30724;BME280;17473;52.286;20.930;2023-05-23T04:37:31;100188.47;;;34.06;22.44
30724;BME280;17473;52.286;20.930;2023-05-23T04:39:58;100185.44;;;35.16;21.54
30724;BME280;17473;52.286;20.930;2023-05-23T04:42:26;100177.34;;;34.75;22.85
30724;BME280;17473;52.286;20.930;2023-05-23T04:44:55;100186.66;;;35.24;22.48
30724;BME280;17473;52.286;20.930;2023-05-23T04:47:25;100183.28;;;35.95;21.99
30724;BME280;17473;52.286;20.930;2023-05-23T04:49:54;100176.47;;;36.37;21.72
30724;BME280;17473;52.286;20.930;2023-05-23T04:52:23;100174.50;;;37.54;20.10
30724;BME280;17473;52.286;20.930;2023-05-23T04:54:51;100182.44;;;37.80;19.03
30724;BME280;17473;52.286;20.930;2023-05-23T04:57:20;100173.19;;;38.25;19.27
30724;BME280;17473;52.286;20.930;2023-05-23T04:59:47;100183.31;;;38.24;19.38
30724;BME280;17473;52.286;20.930;2023-05-23T05:02:14;100173.16;;;38.57;20.02
30724;BME280;17473;52.286;20.930;2023-05-23T05:04:42;100178.09;;;39.37;18.56
30724;BME280;17473;52.286;20.930;2023-05-23T05:07:09;100171.28;;;39.91;17.61
30724;BME280;17473;52.286;20.930;2023-05-23T05:09:36;100164.44;;;39.96;18.16
30724;BME280;17473;52.286;20.930;2023-05-23T05:12:03;100165.44;;;40.63;17.83
30724;BME280;17473;52.286;20.930;2023-05-23T05:14:30;100157.03;;;40.93;16.83
30724;BME280;17473;52.286;20.930;2023-05-23T05:16:57;100154.91;;;42.16;15.43
30724;BME280;17473;52.286;20.930;2023-05-23T05:19:25;100157.91;;;42.05;15.18
30724;BME280;17473;52.286;20.930;2023-05-23T05:21:52;100153.53;;;41.84;15.53
30724;BME280;17473;52.286;20.930;2023-05-23T05:24:19;100158.38;;;42.36;15.09
30724;BME280;17473;52.286;20.930;2023-05-23T05:26:48;100152.91;;;42.89;14.32
30724;BME280;17473;52.286;20.930;2023-05-23T05:29:15;100160.91;;;42.12;14.90
30724;BME280;17473;52.286;20.930;2023-05-23T05:31:42;100160.66;;;42.41;14.59
30724;BME280;17473;52.286;20.930;2023-05-23T05:34:11;100153.72;;;42.81;14.22
30724;BME280;17473;52.286;20.930;2023-05-23T05:36:39;100155.09;;;43.55;14.07
30724;BME280;17473;52.286;20.930;2023-05-23T05:39:15;100154.38;;;43.44;13.63
30724;BME280;17473;52.286;20.930;2023-05-23T05:41:42;100154.25;;;42.85;14.02
30724;BME280;17473;52.286;20.930;2023-05-23T05:44:09;100147.84;;;42.66;14.29
30724;BME280;17473;52.286;20.930;2023-05-23T05:46:36;100163.59;;;42.58;14.06
30724;BME280;17473;52.286;20.930;2023-05-23T05:49:03;100156.09;;;43.37;13.79
30724;BME280;17473;52.286;20.930;2023-05-23T05:51:31;100156.94;;;43.38;13.60
30724;BME280;17473;52.286;20.930;2023-05-23T05:53:58;100160.22;;;42.72;13.93
30724;BME280;17473;52.286;20.930;2023-05-23T05:56:25;100158.97;;;43.27;13.62
30724;BME280;17473;52.286;20.930;2023-05-23T05:58:53;100151.13;;;42.62;13.78
30724;BME280;17473;52.286;20.930;2023-05-23T06:01:20;100153.59;;;43.69;13.54
30724;BME280;17473;52.286;20.930;2023-05-23T06:03:47;100154.13;;;43.72;13.82
30724;BME280;17473;52.286;20.930;2023-05-23T06:06:15;100150.50;;;43.29;13.64
30724;BME280;17473;52.286;20.930;2023-05-23T06:08:43;100152.53;;;42.66;14.00
30724;BME280;17473;52.286;20.930;2023-05-23T06:11:10;100138.97;;;42.81;13.48
30724;BME280;17473;52.286;20.930;2023-05-23T06:13:38;100140.78;;;43.33;13.40
30724;BME280;17473;52.286;20.930;2023-05-23T06:16:05;100140.22;;;42.95;13.24
30724;BME280;17473;52.286;20.930;2023-05-23T06:18:32;100144.78;;;42.07;13.50
30724;BME280;17473;52.286;20.930;2023-05-23T06:20:59;100135.44;;;43.05;13.34
30724;BME280;17473;52.286;20.930;2023-05-23T06:23:27;100142.03;;;43.39;13.12
30724;BME280;17473;52.286;20.930;2023-05-23T06:25:54;100132.13;;;43.36;13.04
30724;BME280;17473;52.286;20.930;2023-05-23T06:28:21;100127.59;;;43.00;13.06
30724;BME280;17473;52.286;20.930;2023-05-23T06:30:48;100132.56;;;41.08;13.90
30724;BME280;17473;52.286;20.930;2023-05-23T06:33:15;100133.78;;;39.89;14.13
30724;BME280;17473;52.286;20.930;2023-05-23T06:35:42;100130.66;;;40.98;13.76
30724;BME280;17473;52.286;20.930;2023-05-23T06:38:10;100128.75;;;41.65;13.68
30724;BME280;17473;52.286;20.930;2023-05-23T06:40:37;100123.38;;;41.35;13.29
30724;BME280;17473;52.286;20.930;2023-05-23T06:43:04;100123.94;;;41.85;13.43
30724;BME280;17473;52.286;20.930;2023-05-23T06:45:31;100122.66;;;41.79;13.46
30724;BME280;17473;52.286;20.930;2023-05-23T06:48:01;100116.09;;;42.16;13.09
30724;BME280;17473;52.286;20.930;2023-05-23T06:50:28;100124.81;;;41.85;13.42
30724;BME280;17473;52.286;20.930;2023-05-23T06:52:55;100117.53;;;42.02;12.74
30724;BME280;17473;52.286;20.930;2023-05-23T06:55:23;100112.34;;;42.26;12.79
30724;BME280;17473;52.286;20.930;2023-05-23T06:57:50;100106.31;;;41.02;14.02
30724;BME280;17473;52.286;20.930;2023-05-23T07:00:18;100110.59;;;41.98;13.33
30724;BME280;17473;52.286;20.930;2023-05-23T07:02:46;100115.78;;;41.83;12.75
30724;BME280;17473;52.286;20.930;2023-05-23T07:05:14;100100.91;;;41.66;13.21
30724;BME280;17473;52.286;20.930;2023-05-23T07:07:42;100102.34;;;42.06;12.66
30724;BME280;17473;52.286;20.930;2023-05-23T07:10:10;100100.84;;;42.12;12.90
30724;BME280;17473;52.286;20.930;2023-05-23T07:12:37;100092.66;;;40.53;13.91
30724;BME280;17473;52.286;20.930;2023-05-23T07:15:04;100093.91;;;40.88;13.62
30724;BME280;17473;52.286;20.930;2023-05-23T07:17:32;100096.28;;;40.16;13.57
30724;BME280;17473;52.286;20.930;2023-05-23T07:20:00;100084.91;;;40.29;13.95
30724;BME280;17473;52.286;20.930;2023-05-23T07:22:27;100088.41;;;40.78;13.72
30724;BME280;17473;52.286;20.930;2023-05-23T07:24:54;100085.09;;;40.55;13.33
30724;BME280;17473;52.286;20.930;2023-05-23T07:27:21;100097.66;;;40.40;13.42
30724;BME280;17473;52.286;20.930;2023-05-23T07:29:48;100079.91;;;39.54;13.86
30724;BME280;17473;52.286;20.930;2023-05-23T07:32:16;100086.91;;;39.58;14.66
30724;BME280;17473;52.286;20.930;2023-05-23T07:34:43;100077.19;;;38.09;14.89
30724;BME280;17473;52.286;20.930;2023-05-23T07:37:10;100075.84;;;38.24;15.57
30724;BME280;17473;52.286;20.930;2023-05-23T07:39:37;100068.88;;;36.65;16.30
30724;BME280;17473;52.286;20.930;2023-05-23T07:42:04;100076.66;;;35.89;16.80
30724;BME280;17473;52.286;20.930;2023-05-23T07:44:31;100067.13;;;35.09;17.25
30724;BME280;17473;52.286;20.930;2023-05-23T07:46:58;100065.88;;;35.75;16.62
30724;BME280;17473;52.286;20.930;2023-05-23T07:49:26;100058.66;;;35.36;16.97
30724;BME280;17473;52.286;20.930;2023-05-23T07:51:53;100044.16;;;34.60;17.94
30724;BME280;17473;52.286;20.930;2023-05-23T07:54:20;100065.91;;;33.97;18.33
30724;BME280;17473;52.286;20.930;2023-05-23T07:56:47;100058.50;;;34.38;18.23
30724;BME280;17473;52.286;20.930;2023-05-23T07:59:14;100061.75;;;34.17;18.64
30724;BME280;17473;52.286;20.930;2023-05-23T08:01:41;100049.16;;;33.89;18.79
30724;BME280;17473;52.286;20.930;2023-05-23T08:04:08;100049.88;;;33.91;19.24
30724;BME280;17473;52.286;20.930;2023-05-23T08:06:35;100058.44;;;33.99;19.05
30724;BME280;17473;52.286;20.930;2023-05-23T08:09:07;100069.72;;;32.83;19.84
30724;BME280;17473;52.286;20.930;2023-05-23T08:11:35;100054.97;;;31.35;20.89
30724;BME280;17473;52.286;20.930;2023-05-23T08:14:02;100067.06;;;32.38;20.32
30724;BME280;17473;52.286;20.930;2023-05-23T08:16:29;100056.38;;;31.74;21.16
30724;BME280;17473;52.286;20.930;2023-05-23T08:18:56;100049.25;;;31.07;21.81
30724;BME280;17473;52.286;20.930;2023-05-23T08:21:24;100053.88;;;32.30;20.76
30724;BME280;17473;52.286;20.930;2023-05-23T08:23:51;100056.84;;;32.11;20.63
30724;BME280;17473;52.286;20.930;2023-05-23T08:26:18;100055.09;;;32.10;20.56
30724;BME280;17473;52.286;20.930;2023-05-23T08:28:45;100046.09;;;32.24;20.64
30724;BME280;17473;52.286;20.930;2023-05-23T08:31:12;100042.06;;;32.59;20.52
30724;BME280;17473;52.286;20.930;2023-05-23T08:33:39;100041.44;;;32.10;20.79
30724;BME280;17473;52.286;20.930;2023-05-23T08:36:06;100037.25;;;32.05;20.09
30724;BME280;17473;52.286;20.930;2023-05-23T08:38:33;100031.97;;;32.02;20.79
30724;BME280;17473;52.286;20.930;2023-05-23T08:41:01;100033.41;;;32.67;19.89
30724;BME280;17473;52.286;20.930;2023-05-23T08:43:28;100029.22;;;33.17;19.46
30724;BME280;17473;52.286;20.930;2023-05-23T08:45:55;100029.09;;;33.48;19.20
30724;BME280;17473;52.286;20.930;2023-05-23T08:48:24;100024.63;;;32.47;20.14
30724;BME280;17473;52.286;20.930;2023-05-23T08:50:52;100024.81;;;31.84;20.93
30724;BME280;17473;52.286;20.930;2023-05-23T08:53:20;100017.91;;;31.63;19.70
30724;BME280;17473;52.286;20.930;2023-05-23T08:55:49;100033.44;;;31.30;20.22
30724;BME280;17473;52.286;20.930;2023-05-23T08:58:21;100030.81;;;31.13;20.82
30724;BME280;17473;52.286;20.930;2023-05-23T09:00:51;100010.75;;;31.30;20.05
30724;BME280;17473;52.286;20.930;2023-05-23T09:03:19;100023.44;;;31.31;20.30
30724;BME280;17473;52.286;20.930;2023-05-23T09:05:49;100024.34;;;30.98;20.03
30724;BME280;17473;52.286;20.930;2023-05-23T09:08:16;100009.00;;;29.78;21.36
30724;BME280;17473;52.286;20.930;2023-05-23T09:10:47;100012.50;;;29.45;21.64
30724;BME280;17473;52.286;20.930;2023-05-23T09:13:16;100030.25;;;28.97;22.75
30724;BME280;17473;52.286;20.930;2023-05-23T09:18:26;100011.78;;;30.63;21.25
30724;BME280;17473;52.286;20.930;2023-05-23T09:20:54;100011.91;;;30.10;20.73
30724;BME280;17473;52.286;20.930;2023-05-23T09:23:21;100004.28;;;30.00;20.95
30724;BME280;17473;52.286;20.930;2023-05-23T09:25:48;100018.13;;;29.95;21.27
30724;BME280;17473;52.286;20.930;2023-05-23T09:28:15;100021.78;;;29.22;21.42
30724;BME280;17473;52.286;20.930;2023-05-23T09:30:42;100011.28;;;29.33;21.37
30724;BME280;17473;52.286;20.930;2023-05-23T09:33:09;100009.94;;;29.77;20.66
30724;BME280;17473;52.286;20.930;2023-05-23T09:35:43;100030.44;;;29.30;21.07
30724;BME280;17473;52.286;20.930;2023-05-23T09:38:12;100017.38;;;28.62;21.59
30724;BME280;17473;52.286;20.930;2023-05-23T09:40:44;100012.84;;;28.23;21.49
30724;BME280;17473;52.286;20.930;2023-05-23T09:43:11;100012.78;;;27.83;22.45
30724;BME280;17473;52.286;20.930;2023-05-23T09:45:38;100022.34;;;27.27;23.08
30724;BME280;17473;52.286;20.930;2023-05-23T09:48:11;100023.59;;;26.96;23.37
30724;BME280;17473;52.286;20.930;2023-05-23T09:50:40;100007.03;;;27.03;24.07
30724;BME280;17473;52.286;20.930;2023-05-23T09:53:07;100008.25;;;27.84;22.93
30724;BME280;17473;52.286;20.930;2023-05-23T09:55:34;100010.81;;;28.28;22.01
30724;BME280;17473;52.286;20.930;2023-05-23T09:58:03;100008.94;;;28.68;21.86
30724;BME280;17473;52.286;20.930;2023-05-23T10:00:30;99996.22;;;27.69;22.89
30724;BME280;17473;52.286;20.930;2023-05-23T10:03:11;100019.13;;;27.17;24.09
30724;BME280;17473;52.286;20.930;2023-05-23T10:05:49;100012.16;;;27.56;23.03
30724;BME280;17473;52.286;20.930;2023-05-23T10:08:33;100008.78;;;27.27;23.71
30724;BME280;17473;52.286;20.930;2023-05-23T10:13:46;100019.25;;;26.92;24.69
30724;BME280;17473;52.286;20.930;2023-05-23T10:16:37;99987.13;;;26.82;24.75
30724;BME280;17473;52.286;20.930;2023-05-23T10:19:16;99992.16;;;27.14;23.91
30724;BME280;17473;52.286;20.930;2023-05-23T10:21:54;100001.03;;;27.40;23.81
30724;BME280;17473;52.286;20.930;2023-05-23T10:24:24;100010.88;;;27.85;23.47
30724;BME280;17473;52.286;20.930;2023-05-23T10:26:53;99989.72;;;27.93;23.35
30724;BME280;17473;52.286;20.930;2023-05-23T10:29:21;100001.56;;;27.70;23.25
30724;BME280;17473;52.286;20.930;2023-05-23T10:31:50;99999.16;;;27.20;23.63
30724;BME280;17473;52.286;20.930;2023-05-23T10:34:28;99983.47;;;27.71;23.46
30724;BME280;17473;52.286;20.930;2023-05-23T10:37:05;100013.38;;;27.02;24.15
30724;BME280;17473;52.286;20.930;2023-05-23T10:42:44;99981.97;;;27.21;24.10
30724;BME280;17473;52.286;20.930;2023-05-23T10:45:20;99997.38;;;26.72;24.35
30724;BME280;17473;52.286;20.930;2023-05-23T10:47:52;99982.66;;;26.58;25.21
30724;BME280;17473;52.286;20.930;2023-05-23T10:50:34;99983.72;;;26.99;25.00
30724;BME280;17473;52.286;20.930;2023-05-23T10:53:04;99996.25;;;26.80;24.92
30724;BME280;17473;52.286;20.930;2023-05-23T10:55:34;99988.91;;;27.06;24.22
30724;BME280;17473;52.286;20.930;2023-05-23T10:58:15;99985.34;;;26.81;24.11
30724;BME280;17473;52.286;20.930;2023-05-23T11:00:59;99981.16;;;26.49;24.75
30724;BME280;17473;52.286;20.930;2023-05-23T11:03:50;99978.38;;;26.01;25.06
30724;BME280;17473;52.286;20.930;2023-05-23T11:06:43;99975.88;;;26.22;24.97
30724;BME280;17473;52.286;20.930;2023-05-23T11:09:16;99975.81;;;25.98;25.33
30724;BME280;17473;52.286;20.930;2023-05-23T11:11:54;99971.16;;;26.27;25.93
30724;BME280;17473;52.286;20.930;2023-05-23T11:17:00;99966.59;;;26.77;25.66
30724;BME280;17473;52.286;20.930;2023-05-23T11:20:05;99969.75;;;26.88;25.37
30724;BME280;17473;52.286;20.930;2023-05-23T11:22:34;99963.31;;;26.45;25.61
30724;BME280;17473;52.286;20.930;2023-05-23T11:25:07;99962.22;;;26.49;25.87
30724;BME280;17473;52.286;20.930;2023-05-23T11:27:38;99951.09;;;26.80;25.70
30724;BME280;17473;52.286;20.930;2023-05-23T11:30:11;99960.09;;;26.81;25.77
30724;BME280;17473;52.286;20.930;2023-05-23T11:32:41;99947.78;;;26.26;26.41
30724;BME280;17473;52.286;20.930;2023-05-23T11:35:10;99957.25;;;25.87;26.86
30724;BME280;17473;52.286;20.930;2023-05-23T11:37:38;99954.09;;;26.49;26.40
30724;BME280;17473;52.286;20.930;2023-05-23T11:43:13;99959.06;;;26.61;26.57
30724;BME280;17473;52.286;20.930;2023-05-23T11:45:41;99957.81;;;26.22;26.48
30724;BME280;17473;52.286;20.930;2023-05-23T11:48:10;99955.50;;;26.59;26.16
30724;BME280;17473;52.286;20.930;2023-05-23T11:51:03;99939.03;;;26.65;26.84
30724;BME280;17473;52.286;20.930;2023-05-23T11:53:31;99942.81;;;26.37;26.00
30724;BME280;17473;52.286;20.930;2023-05-23T11:56:01;99932.75;;;26.65;25.85
30724;BME280;17473;52.286;20.930;2023-05-23T11:58:34;99949.56;;;26.49;26.48
30724;BME280;17473;52.286;20.930;2023-05-23T12:01:04;99932.41;;;25.77;26.42
30724;BME280;17473;52.286;20.930;2023-05-23T12:03:45;99931.19;;;25.86;26.60
30724;BME280;17473;52.286;20.930;2023-05-23T12:06:20;99940.78;;;26.20;26.54
30724;BME280;17473;52.286;20.930;2023-05-23T12:08:51;99937.06;;;26.23;26.47
30724;BME280;17473;52.286;20.930;2023-05-23T12:11:18;99939.81;;;26.45;26.23
30724;BME280;17473;52.286;20.930;2023-05-23T12:13:45;99933.16;;;26.06;27.09
30724;BME280;17473;52.286;20.930;2023-05-23T12:16:13;99923.72;;;26.64;25.96
30724;BME280;17473;52.286;20.930;2023-05-23T12:18:42;99917.88;;;26.53;25.53
30724;BME280;17473;52.286;20.930;2023-05-23T12:21:09;99919.25;;;26.87;25.72
30724;BME280;17473;52.286;20.930;2023-05-23T12:23:38;99924.97;;;26.55;25.84
30724;BME280;17473;52.286;20.930;2023-05-23T12:26:06;99924.31;;;26.01;27.09
30724;BME280;17473;52.286;20.930;2023-05-23T12:28:37;99919.78;;;26.49;26.52
30724;BME280;17473;52.286;20.930;2023-05-23T12:33:41;99918.06;;;26.48;26.15
30724;BME280;17473;52.286;20.930;2023-05-23T12:36:11;99927.59;;;26.81;26.29
30724;BME280;17473;52.286;20.930;2023-05-23T12:38:40;99920.03;;;26.43;26.24
30724;BME280;17473;52.286;20.930;2023-05-23T12:41:20;99913.50;;;26.01;26.35
30724;BME280;17473;52.286;20.930;2023-05-23T12:43:53;99912.38;;;26.08;26.95
30724;BME280;17473;52.286;20.930;2023-05-23T12:46:24;99921.22;;;26.36;26.83
30724;BME280;17473;52.286;20.930;2023-05-23T12:48:52;99913.22;;;26.56;26.46
30724;BME280;17473;52.286;20.930;2023-05-23T12:51:20;99908.75;;;26.55;26.00
30724;BME280;17473;52.286;20.930;2023-05-23T12:53:48;99907.25;;;26.70;26.20
30724;BME280;17473;52.286;20.930;2023-05-23T12:56:15;99900.50;;;26.81;25.98
30724;BME280;17473;52.286;20.930;2023-05-23T12:58:42;99893.28;;;26.81;25.93
30724;BME280;17473;52.286;20.930;2023-05-23T13:01:09;99894.28;;;27.01;26.03
30724;BME280;17473;52.286;20.930;2023-05-23T13:03:37;99895.41;;;27.17;25.72
30724;BME280;17473;52.286;20.930;2023-05-23T13:06:04;99895.66;;;27.32;25.87
30724;BME280;17473;52.286;20.930;2023-05-23T13:08:32;99897.50;;;27.31;25.40
30724;BME280;17473;52.286;20.930;2023-05-23T13:10:59;99889.44;;;27.09;25.46
30724;BME280;17473;52.286;20.930;2023-05-23T13:13:26;99891.78;;;27.17;25.20
30724;BME280;17473;52.286;20.930;2023-05-23T13:15:54;99892.28;;;27.27;25.36
30724;BME280;17473;52.286;20.930;2023-05-23T13:18:22;99881.78;;;27.19;25.64